Time;durP1;ratioP1;P1;durP2;ratioP2;P2;SDS_P1;SDS_P2;PMS_P1;PMS_P2;Temp;Humidity;BMP_temperature;BMP_pressure;BME280_temperature;BME280_humidity;BME280_pressure;Samples;Min_cycle;Max_cycle;Signal;HPM_P1;HPM_P2
2022/08/27 00:02:24;;;;;;;12.23;7.82;;;;;;;20.93;75.72;98148.09;5085507;28;20489;-90
2022/08/27 00:04:50;;;;;;;13.52;7.93;;;;;;;20.97;75.72;98164.94;5091730;28;20089;-91
2022/08/27 00:07:16;;;;;;;13.55;8.02;;;;;;;20.90;76.10;98160.97;5091713;28;20044;-90
2022/08/27 00:09:42;;;;;;;13.95;7.93;;;;;;;20.83;75.90;98148.94;5090816;28;20184;-91
2022/08/27 00:12:10;;;;;;;13.18;7.85;;;;;;;20.79;76.67;98155.56;5090388;28;20047;-91
2022/08/27 00:14:37;;;;;;;14.52;8.02;;;;;;;20.81;76.00;98153.59;5091674;28;20036;-92
2022/08/27 00:17:04;;;;;;;10.05;7.60;;;;;;;20.84;76.02;98145.25;5089255;28;20567;-92
2022/08/27 00:19:30;;;;;;;14.07;7.93;;;;;;;20.71;76.20;98138.13;5091479;28;20089;-91
2022/08/27 00:21:56;;;;;;;13.75;8.07;;;;;;;20.65;76.64;98141.31;5091196;28;20041;-88
2022/08/27 00:24:22;;;;;;;12.40;8.27;;;;;;;20.70;76.74;98149.91;5091798;28;20043;-91
2022/08/27 00:26:49;;;;;;;13.25;8.15;;;;;;;20.75;76.41;98154.09;5091608;28;20493;-91
2022/08/27 00:29:16;;;;;;;14.45;8.40;;;;;;;20.70;76.48;98149.91;5089894;28;20040;-90
2022/08/27 00:31:42;;;;;;;11.43;7.78;;;;;;;20.62;77.55;98144.22;5090783;28;20040;-90
2022/08/27 00:34:08;;;;;;;11.90;8.15;;;;;;;20.53;77.43;98132.28;5091188;28;20490;-91
2022/08/27 00:36:34;;;;;;;14.95;8.50;;;;;;;20.48;77.87;98130.94;5088017;28;20150;-91
2022/08/27 00:39:01;;;;;;;14.00;8.55;;;;;;;20.57;78.30;98148.25;5089333;28;20047;-90
2022/08/27 00:41:27;;;;;;;14.38;8.57;;;;;;;20.56;78.53;98146.53;5097018;28;20113;-91
2022/08/27 00:43:56;;;;;;;15.50;8.63;;;;;;;20.56;78.83;98154.63;5094832;28;20466;-92
2022/08/27 00:46:30;;;;;;;12.77;8.13;;;;;;;20.45;78.57;98141.94;5091053;28;20040;-91
2022/08/27 00:49:01;;;;;;;11.35;8.32;;;;;;;20.45;79.21;98155.44;5091148;28;20044;-91
2022/08/27 00:51:28;;;;;;;15.02;8.90;;;;;;;20.49;78.39;98151.53;5091147;28;20040;-92
2022/08/27 00:53:56;;;;;;;13.38;8.27;;;;;;;20.36;80.21;98156.16;5087718;28;20056;-90
2022/08/27 00:56:25;;;;;;;13.98;8.00;;;;;;;20.22;80.06;98139.19;5090627;28;20461;-91
2022/08/27 00:58:53;;;;;;;13.73;8.93;;;;;;;20.24;79.73;98150.75;5090839;28;20055;-91
2022/08/27 01:01:22;;;;;;;12.73;8.35;;;;;;;20.21;80.17;98144.72;5089033;28;20063;-92
2022/08/27 01:03:54;;;;;;;22.77;8.98;;;;;;;20.20;80.64;98149.25;5089719;28;20054;-90
2022/08/27 01:06:22;;;;;;;13.10;8.20;;;;;;;20.13;80.66;98148.00;5073908;28;20113;-91
2022/08/27 01:08:52;;;;;;;14.20;9.40;;;;;;;20.08;81.15;98145.66;5076629;28;20136;-91
2022/08/27 01:11:18;;;;;;;13.38;8.30;;;;;;;20.12;80.48;98162.47;5076791;28;20041;-91
2022/08/27 01:13:45;;;;;;;11.75;8.43;;;;;;;20.07;81.40;98153.88;5076943;28;20041;-92
2022/08/27 01:16:16;;;;;;;12.63;8.50;;;;;;;20.15;80.86;98153.28;5076645;28;20040;-91
2022/08/27 01:18:42;;;;;;;15.13;9.07;;;;;;;20.13;81.39;98153.41;5076353;28;20130;-92
2022/08/27 01:21:21;;;;;;;11.48;8.60;;;;;;;20.09;81.72;98150.06;5076084;28;20023;-91
2022/08/27 01:23:52;;;;;;;15.07;8.70;;;;;;;20.05;81.66;98143.19;5076818;28;20039;-92
2022/08/27 01:26:21;;;;;;;14.40;9.02;;;;;;;20.07;82.16;98151.16;5076414;28;20036;-91
2022/08/27 01:28:48;;;;;;;15.20;8.85;;;;;;;20.05;81.94;98145.03;5076051;28;20473;-90
2022/08/27 01:31:14;;;;;;;13.57;8.55;;;;;;;20.09;82.38;98155.47;5074379;28;20090;-91
2022/08/27 01:33:51;;;;;;;12.73;8.60;;;;;;;20.07;81.86;98151.16;5076065;28;20040;-91
2022/08/27 01:36:17;;;;;;;13.68;8.20;;;;;;;20.09;82.23;98158.16;5075596;28;20032;-90
2022/08/27 01:38:43;;;;;;;13.13;8.95;;;;;;;20.02;82.40;98145.28;5076118;28;20119;-91
2022/08/27 01:41:10;;;;;;;13.93;9.02;;;;;;;20.01;82.28;98144.38;5081820;28;20063;-89
2022/08/27 01:43:37;;;;;;;12.93;8.82;;;;;;;20.02;82.12;98145.28;5079454;28;20090;-91
2022/08/27 01:46:03;;;;;;;15.50;9.10;;;;;;;20.00;82.66;98152.63;5076030;28;20063;-90
2022/08/27 01:48:29;;;;;;;18.17;9.40;;;;;;;20.03;82.33;98160.47;5074959;28;20037;-91
2022/08/27 01:50:55;;;;;;;21.40;8.60;;;;;;;19.98;82.91;98160.81;5076655;28;20048;-90
2022/08/27 01:53:23;;;;;;;12.60;8.55;;;;;;;19.94;82.99;98163.88;5075571;28;20048;-91
2022/08/27 01:55:51;;;;;;;11.55;8.18;;;;;;;20.03;82.96;98176.66;5076209;28;20068;-90
2022/08/27 01:58:20;;;;;;;11.68;8.13;;;;;;;20.05;82.83;98169.31;5075025;28;20040;-91
2022/08/27 02:00:50;;;;;;;13.27;9.02;;;;;;;20.00;83.25;98172.38;5075636;28;20036;-92
2022/08/27 02:03:17;;;;;;;14.85;9.15;;;;;;;19.90;83.42;98158.69;5075692;28;20062;-91
2022/08/27 02:05:44;;;;;;;13.32;8.40;;;;;;;19.91;84.18;98162.25;5074339;28;20036;-90
2022/08/27 02:08:10;;;;;;;14.02;8.82;;;;;;;19.95;84.04;98160.19;5074573;28;20498;-90
2022/08/27 02:10:38;;;;;;;16.50;9.10;;;;;;;19.95;83.98;98158.38;5075904;28;20036;-91
2022/08/27 02:13:06;;;;;;;14.00;9.45;;;;;;;20.04;83.03;98170.31;5075370;28;20123;-92
2022/08/27 02:15:34;;;;;;;13.57;8.60;;;;;;;19.97;84.34;98160.94;5074105;28;20040;-90
2022/08/27 02:18:02;;;;;;;11.88;9.02;;;;;;;19.95;84.03;98150.28;5074638;28;20076;-91
2022/08/27 02:20:28;;;;;;;14.32;9.80;;;;;;;20.11;83.01;98163.47;5074027;28;20044;-91
2022/08/27 02:22:55;;;;;;;15.07;9.05;;;;;;;20.08;82.27;98163.66;5075403;28;20044;-91
2022/08/27 02:25:21;;;;;;;15.75;9.18;;;;;;;20.05;83.47;98163.91;5075255;28;20127;-90
2022/08/27 02:27:48;;;;;;;13.15;8.52;;;;;;;20.13;82.91;98169.59;5075233;28;20040;-91
2022/08/27 02:30:17;;;;;;;14.55;8.93;;;;;;;20.05;82.85;98167.47;5075089;28;20064;-90
2022/08/27 02:32:45;;;;;;;;;;;;;;;20.11;82.93;98171.56;5076077;28;20119;-91
2022/08/27 02:35:13;;;;;;;;;;;;;;;20.12;82.99;98167.88;5075010;28;19920;-89
2022/08/27 02:37:39;;;;;;;15.05;9.73;;;;;;;19.96;84.34;98159.22;5074766;28;19924;-92
2022/08/27 02:40:07;;;;;;;15.05;9.10;;;;;;;19.97;83.75;98160.94;5075525;28;20037;-92
2022/08/27 02:42:33;;;;;;;15.60;10.23;;;;;;;19.96;84.13;98161.91;5074512;28;20539;-91
2022/08/27 02:44:59;;;;;;;14.48;9.18;;;;;;;19.97;83.98;98158.22;5074045;28;20040;-91
2022/08/27 02:47:25;;;;;;;13.98;9.35;;;;;;;19.93;84.02;98156.72;5075118;28;20040;-90
2022/08/27 02:49:51;;;;;;;13.75;8.95;;;;;;;19.85;84.38;98160.88;5075148;28;20456;-92
2022/08/27 02:52:19;;;;;;;17.10;9.75;;;;;;;19.85;84.63;98163.56;5075166;28;20040;-90
2022/08/27 02:54:45;;;;;;;15.30;8.85;;;;;;;19.79;85.28;98160.47;5073683;28;20048;-90
2022/08/27 02:57:11;;;;;;;13.63;9.63;;;;;;;19.70;85.27;98148.53;5074706;28;20119;-90
2022/08/27 02:59:37;;;;;;;13.43;8.93;;;;;;;19.77;85.90;98157.88;5074872;28;20063;-91
2022/08/27 03:02:03;;;;;;;15.23;9.02;;;;;;;19.71;85.55;98152.94;5074594;28;20086;-91
2022/08/27 03:04:29;;;;;;;15.18;9.52;;;;;;;19.77;85.93;98167.81;5074614;28;20033;-91
2022/08/27 03:06:55;;;;;;;12.95;10.15;;;;;;;19.69;86.00;98158.47;5074517;28;20452;-91
2022/08/27 03:09:22;;;;;;;12.77;8.85;;;;;;;19.72;86.66;98157.38;5074615;28;20036;-91
2022/08/27 03:11:48;;;;;;;14.52;9.27;;;;;;;19.69;86.70;98155.78;5074472;28;20048;-92
2022/08/27 03:14:14;;;;;;;16.02;9.70;;;;;;;19.75;86.72;98167.91;5074479;28;20033;-92
2022/08/27 03:16:40;;;;;;;14.27;9.68;;;;;;;19.73;86.26;98160.94;5073572;28;20130;-90
2022/08/27 03:19:06;;;;;;;12.95;9.35;;;;;;;19.80;86.41;98175.66;5074594;28;20036;-91
2022/08/27 03:21:34;;;;;;;16.75;9.88;;;;;;;19.83;86.01;98179.00;5074449;28;20952;-91
2022/08/27 03:24:00;;;;;;;13.18;9.45;;;;;;;19.77;86.01;98163.28;5075034;28;20040;-91
2022/08/27 03:26:28;;;;;;;17.23;9.75;;;;;;;19.87;85.53;98171.56;5074648;28;20044;-91
2022/08/27 03:28:54;;;;;;;20.30;9.93;;;;;;;19.80;85.80;98165.75;5073263;28;20048;-92
2022/08/27 03:31:26;;;;;;;17.25;9.73;;;;;;;19.77;86.38;98163.28;5074578;28;20252;-91
2022/08/27 03:33:53;;;;;;;14.68;8.98;;;;;;;19.70;86.28;98160.19;5070909;28;20555;-91
2022/08/27 03:36:19;;;;;;;14.90;9.05;;;;;;;19.76;86.53;98172.38;5073745;28;20545;-91
2022/08/27 03:38:45;;;;;;;16.60;9.70;;;;;;;19.71;86.62;98169.13;5074247;28;20494;-91
2022/08/27 03:41:12;;;;;;;16.05;10.05;;;;;;;19.77;86.64;98174.06;5074419;28;20090;-92
2022/08/27 03:43:39;;;;;;;13.10;8.90;;;;;;;19.79;86.62;98174.81;5074248;28;20115;-91
2022/08/27 03:46:07;;;;;;;14.75;9.13;;;;;;;19.76;86.84;98185.84;5074473;28;20100;-91
2022/08/27 03:48:33;;;;;;;14.98;9.73;;;;;;;19.64;87.19;98168.69;5074390;28;20089;-91
2022/08/27 03:51:04;;;;;;;15.40;9.90;;;;;;;19.73;86.71;98179.81;5073343;28;20036;-90
2022/08/27 03:53:30;;;;;;;15.95;9.90;;;;;;;19.71;86.80;98179.91;5072748;28;20147;-91
2022/08/27 03:55:56;;;;;;;17.40;9.85;;;;;;;19.69;86.80;98181.81;5075295;28;20067;-90
2022/08/27 03:58:22;;;;;;;15.63;9.35;;;;;;;19.67;86.45;98183.81;5073788;28;20094;-90
2022/08/27 04:00:49;;;;;;;14.15;8.98;;;;;;;19.57;87.40;98180.06;5075260;28;20044;-89
2022/08/27 04:03:15;;;;;;;15.45;9.23;;;;;;;19.57;87.49;98182.75;5076191;28;20037;-89
2022/08/27 04:05:41;;;;;;;14.13;9.57;;;;;;;19.49;87.96;98176.06;5075392;28;20048;-91
2022/08/27 04:08:08;;;;;;;15.23;9.95;;;;;;;19.43;88.63;98179.22;5076194;28;20043;-91
2022/08/27 04:10:34;;;;;;;13.18;9.27;;;;;;;19.32;89.23;98171.03;5075103;28;20048;-90
2022/08/27 04:12:59;;;;;;;16.52;9.80;;;;;;;19.26;88.44;98158.88;5075090;28;20075;-90
2022/08/27 04:15:26;;;;;;;16.90;10.10;;;;;;;19.29;88.93;98169.44;5075255;28;20482;-90
2022/08/27 04:17:53;;;;;;;15.43;9.75;;;;;;;19.32;88.88;98167.47;5076111;28;20139;-92
2022/08/27 04:20:19;;;;;;;15.88;9.70;;;;;;;19.36;88.88;98164.44;5074168;28;20041;-90
2022/08/27 04:22:45;;;;;;;16.38;9.48;;;;;;;19.37;88.67;98179.66;5075113;28;20520;-91
2022/08/27 04:25:11;;;;;;;16.20;10.30;;;;;;;19.34;88.74;98170.94;5073979;28;20040;-91
2022/08/27 04:27:37;;;;;;;15.13;10.10;;;;;;;19.34;89.28;98179.03;5074815;28;20036;-91
2022/08/27 04:30:04;;;;;;;14.95;9.55;;;;;;;19.34;89.52;98174.47;5075665;28;20140;-90
2022/08/27 04:32:30;;;;;;;15.77;10.52;;;;;;;19.38;90.49;98186.78;5074921;28;20513;-92
2022/08/27 04:34:59;;;;;;;13.80;9.57;;;;;;;19.47;89.20;98196.03;5077079;28;20036;-92
2022/08/27 04:37:28;;;;;;;14.93;9.88;;;;;;;19.54;89.06;98201.84;5074431;28;20048;-91
2022/08/27 04:39:54;;;;;;;12.45;9.50;;;;;;;19.60;88.61;98212.19;5076739;28;20040;-93
2022/08/27 04:42:20;;;;;;;14.27;9.73;;;;;;;19.61;88.36;98206.69;5079763;28;20072;-92
2022/08/27 04:44:46;;;;;;;14.77;9.73;;;;;;;19.59;88.27;98200.53;5079758;28;20056;-91
2022/08/27 04:47:14;;;;;;;14.25;9.63;;;;;;;19.63;88.23;98206.59;5079140;28;21044;-93
2022/08/27 04:49:40;;;;;;;16.80;9.80;;;;;;;19.57;88.19;98193.53;5080080;28;20068;-93
2022/08/27 04:52:08;;;;;;;17.98;9.73;;;;;;;19.71;88.03;98214.97;5080749;28;20135;-92
2022/08/27 04:54:34;;;;;;;16.48;9.55;;;;;;;19.62;88.08;98202.16;5081116;28;20108;-90
2022/08/27 04:57:00;;;;;;;14.65;10.50;;;;;;;19.64;87.49;98202.91;5079003;28;20098;-90
2022/08/27 04:59:26;;;;;;;15.38;10.57;;;;;;;19.69;87.45;98209.72;5077768;28;20058;-90
2022/08/27 05:01:52;;;;;;;14.20;9.85;;;;;;;19.70;87.48;98205.19;5078839;28;20044;-92
2022/08/27 05:04:18;;;;;;;14.57;9.85;;;;;;;19.83;87.55;98219.50;5078842;28;20082;-93
2022/08/27 05:06:44;;;;;;;16.42;10.23;;;;;;;19.89;87.32;98229.84;5078975;28;20425;-91
2022/08/27 05:09:14;;;;;;;16.85;10.40;;;;;;;19.96;87.16;98224.00;5079031;28;20064;-91
2022/08/27 05:11:41;;;;;;;19.90;10.95;;;;;;;20.07;86.06;98224.03;5076221;28;20044;-92
2022/08/27 05:14:09;;;;;;;14.68;10.02;;;;;;;20.00;85.91;98195.78;5079913;28;20119;-93
2022/08/27 05:16:36;;;;;;;17.30;10.27;;;;;;;20.18;85.40;98221.41;5079007;28;20033;-91
2022/08/27 05:19:04;;;;;;;18.90;9.95;;;;;;;20.24;84.98;98220.94;5078658;28;20119;-92
2022/08/27 05:21:32;;;;;;;15.75;10.07;;;;;;;20.24;85.15;98209.28;5078556;28;20040;-92
2022/08/27 05:24:00;;;;;;;14.05;9.57;;;;;;;20.35;85.15;98225.53;5077603;28;20040;-91
2022/08/27 05:26:29;;;;;;;17.23;10.40;;;;;;;20.39;84.84;98223.47;5080519;28;20067;-90
2022/08/27 05:28:58;;;;;;;15.48;10.18;;;;;;;20.44;84.44;98223.97;5078834;28;20028;-92
2022/08/27 05:31:25;;;;;;;15.02;10.27;;;;;;;20.41;84.58;98210.72;5077672;28;20036;-93
2022/08/27 05:33:51;;;;;;;16.90;10.23;;;;;;;20.54;83.55;98230.41;5084027;28;20036;-92
2022/08/27 05:36:19;;;;;;;16.38;10.52;;;;;;;20.60;83.30;98231.78;5085849;28;20044;-90
2022/08/27 05:38:47;;;;;;;14.02;10.10;;;;;;;20.58;82.60;98209.44;5089346;28;20048;-91
2022/08/27 05:41:16;;;;;;;21.98;10.90;;;;;;;20.82;82.49;98239.09;5087568;28;20119;-92
2022/08/27 05:43:45;;;;;;;15.13;10.40;;;;;;;20.89;81.97;98233.09;5090804;28;20044;-91
2022/08/27 05:46:15;;;;;;;19.42;10.57;;;;;;;20.88;80.90;98220.59;5090852;28;20056;-93
2022/08/27 05:48:43;;;;;;;15.25;10.60;;;;;;;21.14;80.87;98233.88;5090293;28;20041;-92
2022/08/27 05:51:11;;;;;;;16.90;9.90;;;;;;;21.30;80.55;98234.38;5088932;28;20083;-91
2022/08/27 05:53:38;;;;;;;15.63;9.73;;;;;;;21.41;79.99;98219.16;5088740;28;20040;-92
2022/08/27 05:56:04;;;;;;;17.90;10.23;;;;;;;21.62;78.15;98235.50;5088555;28;20051;-91
2022/08/27 06:01:34;;;;;;;19.13;10.45;;;;;;;21.99;75.52;98244.22;5146388;27;20376;-92
2022/08/27 06:04:00;;;;;;;17.30;9.93;;;;;;;22.09;75.05;98238.88;5140309;27;20040;-91
2022/08/27 06:06:26;;;;;;;17.33;9.80;;;;;;;22.25;75.09;98243.91;5140851;27;20069;-91
2022/08/27 06:08:53;;;;;;;14.93;9.50;;;;;;;22.28;73.74;98233.69;5144000;27;20046;-91
2022/08/27 06:11:20;;;;;;;13.73;9.75;;;;;;;22.39;73.38;98224.66;5133840;28;20023;-91
2022/08/27 06:13:47;;;;;;;14.80;9.68;;;;;;;22.42;72.95;98235.22;5138645;27;20043;-92
2022/08/27 06:16:18;;;;;;;17.00;9.52;;;;;;;22.52;73.37;98241.59;5133660;27;20043;-92
2022/08/27 06:18:49;;;;;;;15.25;9.35;;;;;;;22.60;73.38;98227.41;5131904;28;20099;-92
2022/08/27 06:21:17;;;;;;;19.35;9.60;;;;;;;22.63;74.35;98229.00;5137902;28;20039;-91
2022/08/27 06:23:43;;;;;;;12.50;8.93;;;;;;;22.71;72.88;98219.22;5130576;28;20036;-91
2022/08/27 06:26:11;;;;;;;15.88;9.60;;;;;;;22.99;72.02;98224.97;5136789;27;20096;-93
2022/08/27 06:28:40;;;;;;;14.20;9.35;;;;;;;23.21;71.73;98225.84;5132182;27;20536;-90
2022/08/27 06:31:08;;;;;;;13.10;8.70;;;;;;;23.36;70.30;98216.34;5129115;28;20027;-92
2022/08/27 06:33:35;;;;;;;14.48;8.77;;;;;;;23.54;70.22;98217.41;5118156;27;20036;-91
2022/08/27 06:36:05;;;;;;;17.88;9.40;;;;;;;23.72;69.73;98219.47;5125285;28;20042;-90
2022/08/27 06:38:31;;;;;;;14.38;8.60;;;;;;;23.93;68.40;98231.16;5132647;27;20035;-92
2022/08/27 06:40:57;;;;;;;12.82;8.73;;;;;;;24.04;67.26;98213.03;5131620;28;20058;-92
2022/08/27 06:43:24;;;;;;;12.45;8.60;;;;;;;24.18;66.19;98210.75;5119826;27;20048;-92
2022/08/27 06:45:50;;;;;;;13.15;9.07;;;;;;;24.44;65.99;98221.09;5120094;28;20059;-92
2022/08/27 06:48:17;;;;;;;13.18;8.43;;;;;;;24.35;66.44;98206.50;5129354;27;20435;-91
2022/08/27 06:50:43;;;;;;;13.10;8.73;;;;;;;24.49;65.85;98221.53;5139239;27;20061;-91
2022/08/27 06:53:11;;;;;;;13.50;8.75;;;;;;;24.59;65.13;98224.25;5138761;27;20028;-91
2022/08/27 06:55:41;;;;;;;16.55;9.23;;;;;;;24.74;64.17;98220.06;5138021;27;20057;-91
2022/08/27 06:58:07;;;;;;;15.55;9.52;;;;;;;24.93;64.25;98226.50;5117210;28;20042;-91
2022/08/27 07:00:33;;;;;;;12.38;8.45;;;;;;;25.05;63.27;98228.06;5121032;28;20059;-90
2022/08/27 07:03:00;;;;;;;23.63;10.20;;;;;;;25.13;62.77;98222.72;5120624;28;20553;-91
2022/08/27 07:05:26;;;;;;;16.67;9.18;;;;;;;25.22;62.77;98223.75;5124341;28;20092;-92
2022/08/27 07:07:52;;;;;;;13.23;9.20;;;;;;;25.19;62.92;98230.34;5130079;27;20461;-91
2022/08/27 07:10:20;;;;;;;15.55;9.07;;;;;;;25.09;63.34;98221.34;5124575;28;20042;-90
2022/08/27 07:12:45;;;;;;;16.65;9.40;;;;;;;25.09;63.48;98215.00;5113023;28;20039;-92
2022/08/27 07:15:12;;;;;;;12.15;8.65;;;;;;;25.13;62.99;98209.13;5110372;28;20396;-90
2022/08/27 07:17:39;;;;;;;14.90;9.48;;;;;;;25.30;62.79;98228.47;5114606;28;20105;-90
2022/08/27 07:20:07;;;;;;;13.83;8.90;;;;;;;25.41;62.66;98231.00;5108837;27;20036;-91
2022/08/27 07:22:32;;;;;;;16.70;9.60;;;;;;;25.58;62.16;98232.09;5107041;27;20619;-90
2022/08/27 07:24:58;;;;;;;12.82;8.63;;;;;;;25.79;61.21;98229.97;5109966;28;20062;-90
2022/08/27 07:27:26;;;;;;;16.50;9.73;;;;;;;25.59;61.06;98231.06;5110582;28;20109;-90
2022/08/27 07:29:52;;;;;;;17.70;9.68;;;;;;;25.63;61.29;98229.75;5105343;28;20497;-91
2022/08/27 07:32:18;;;;;;;15.73;8.80;;;;;;;25.81;61.07;98227.97;5106546;28;20138;-92
2022/08/27 07:34:43;;;;;;;13.52;8.73;;;;;;;25.67;61.35;98209.38;5105714;28;20047;-91
2022/08/27 07:37:09;;;;;;;14.10;8.65;;;;;;;25.90;60.52;98220.78;5108022;28;20028;-91
2022/08/27 07:39:35;;;;;;;13.25;9.25;;;;;;;25.93;60.84;98234.09;5107805;27;20036;-92
2022/08/27 07:45:01;;;;;;;14.75;8.65;;;;;;;25.98;60.12;98234.50;5140511;27;20382;-94
2022/08/27 07:47:27;;;;;;;14.70;8.98;;;;;;;25.98;60.98;98228.19;5137319;27;20038;-93
2022/08/27 07:49:53;;;;;;;12.68;8.50;;;;;;;26.02;60.56;98219.56;5134333;27;20050;-93
2022/08/27 07:52:19;;;;;;;12.50;8.60;;;;;;;26.31;60.00;98234.88;5140362;27;20126;-93
2022/08/27 07:54:44;;;;;;;14.10;8.18;;;;;;;26.40;59.14;98222.16;5141395;27;20043;-93
2022/08/27 07:57:10;;;;;;;14.07;8.82;;;;;;;26.57;59.06;98239.59;5138540;27;20088;-92
2022/08/27 07:59:37;;;;;;;13.63;8.80;;;;;;;26.71;58.10;98230.84;5138410;27;20050;-89
2022/08/27 08:02:04;;;;;;;13.43;8.77;;;;;;;26.86;58.13;98230.28;5135891;27;20036;-91
2022/08/27 08:04:30;;;;;;;13.35;8.13;;;;;;;26.95;57.84;98226.59;5138030;27;20028;-93
2022/08/27 08:06:56;;;;;;;13.80;8.73;;;;;;;26.47;59.83;98236.03;5137474;27;20104;-93
2022/08/27 08:09:23;;;;;;;15.25;9.07;;;;;;;26.47;59.57;98227.84;5135303;27;20040;-94
2022/08/27 08:11:50;;;;;;;13.38;8.00;;;;;;;26.62;59.80;98242.69;5137236;27;20031;-93
2022/08/27 08:14:16;;;;;;;13.65;8.10;;;;;;;26.59;59.83;98252.03;5135110;27;20050;-92
2022/08/27 08:16:42;;;;;;;11.00;8.18;;;;;;;26.86;58.87;98247.50;5137600;27;20126;-94
2022/08/27 08:19:10;;;;;;;12.73;7.95;;;;;;;27.08;58.07;98245.28;5136905;27;20035;-93
2022/08/27 08:21:37;;;;;;;14.47;8.10;;;;;;;27.16;57.61;98229.81;5140539;27;20043;-94
2022/08/27 08:24:03;;;;;;;12.70;8.50;;;;;;;26.84;58.78;98249.53;5138227;27;20549;-93
2022/08/27 08:26:29;;;;;;;13.05;7.90;;;;;;;27.09;58.01;98239.69;5137058;27;20084;-93
2022/08/27 08:28:56;;;;;;;15.35;8.43;;;;;;;27.09;59.06;98245.13;5136902;27;20043;-93
2022/08/27 08:31:22;;;;;;;12.07;8.00;;;;;;;27.30;58.09;98247.50;5135374;27;20055;-94
2022/08/27 08:33:48;;;;;;;13.88;7.75;;;;;;;27.40;57.42;98237.34;5135126;27;20068;-94
2022/08/27 08:36:16;;;;;;;12.52;8.23;;;;;;;27.53;57.06;98239.66;5134128;27;20050;-93
2022/08/27 08:38:44;;;;;;;13.10;7.88;;;;;;;27.54;57.32;98237.75;5136781;27;20042;-93
2022/08/27 08:41:33;;;;;;;14.20;7.67;;;;;;;27.49;57.18;98240.13;5140285;27;20019;-93
2022/08/27 08:44:07;;;;;;;14.07;8.40;;;;;;;27.72;56.84;98240.44;5141937;27;20048;-91
2022/08/27 08:46:39;;;;;;;13.57;7.65;;;;;;;27.97;55.25;98239.53;5129458;27;20046;-92
2022/08/27 08:49:16;;;;;;;15.40;8.23;;;;;;;28.05;55.48;98245.03;5134503;27;20019;-92
2022/08/27 08:51:44;;;;;;;12.00;8.30;;;;;;;28.20;55.34;98245.25;5138695;27;20024;-94
2022/08/27 08:54:18;;;;;;;11.50;7.90;;;;;;;28.21;55.39;98240.63;5134182;27;20386;-92
2022/08/27 08:56:53;;;;;;;13.40;8.30;;;;;;;28.30;55.02;98236.91;5130282;27;20268;-93
2022/08/27 08:59:28;;;;;;;12.43;8.15;;;;;;;28.36;54.04;98233.50;5134987;27;20059;-92
2022/08/27 09:01:55;;;;;;;13.35;7.93;;;;;;;28.31;54.41;98238.63;5129421;27;20040;-92
2022/08/27 09:04:24;;;;;;;12.63;7.53;;;;;;;28.29;54.79;98237.09;5132931;27;20023;-92
2022/08/27 09:06:57;;;;;;;11.50;7.15;;;;;;;28.38;52.99;98230.59;5131071;27;20169;-91
2022/08/27 09:09:34;;;;;;;13.65;7.70;;;;;;;28.42;53.49;98230.09;5130687;28;20036;-94
2022/08/27 09:12:04;;;;;;;13.15;7.28;;;;;;;28.26;52.40;98241.84;5128447;27;20035;-93
2022/08/27 09:14:37;;;;;;;10.85;7.40;;;;;;;28.25;52.73;98239.28;5119292;27;20126;-94
2022/08/27 09:17:04;;;;;;;10.65;7.55;;;;;;;28.31;52.10;98232.31;5114450;27;20404;-91
2022/08/27 09:19:30;;;;;;;11.50;7.75;;;;;;;28.17;52.71;98229.19;5121245;27;20418;-94
2022/08/27 09:22:02;;;;;;;10.77;7.32;;;;;;;28.41;52.22;98222.91;5121122;27;20104;-94
2022/08/27 09:24:39;;;;;;;14.13;7.78;;;;;;;28.77;51.66;98224.53;5120418;27;20398;-94
2022/08/27 09:27:05;;;;;;;10.48;6.78;;;;;;;28.98;50.27;98213.06;5123164;27;20100;-93
2022/08/27 09:29:31;;;;;;;17.75;7.68;;;;;;;29.18;50.07;98210.84;5119442;27;20414;-94
2022/08/27 09:32:02;;;;;;;10.70;7.07;;;;;;;29.34;49.82;98199.00;5122473;27;20047;-94
2022/08/27 09:34:34;;;;;;;11.73;7.10;;;;;;;29.05;50.27;98205.84;5118750;27;20039;-94
2022/08/27 09:37:06;;;;;;;16.05;7.70;;;;;;;28.91;50.00;98214.75;5114828;28;20412;-93
2022/08/27 09:39:39;;;;;;;11.10;7.03;;;;;;;28.88;50.22;98213.22;5120252;27;20058;-93
2022/08/27 09:42:06;;;;;;;9.52;7.03;;;;;;;28.65;48.00;98200.25;5127034;27;20040;-93
2022/08/27 09:44:43;;;;;;;13.25;6.97;;;;;;;28.93;46.81;98196.28;5128526;27;20047;-93
2022/08/27 09:47:13;;;;;;;10.75;7.20;;;;;;;29.19;47.88;98193.38;5121860;27;20066;-92
2022/08/27 09:49:40;;;;;;;11.13;7.07;;;;;;;29.45;47.21;98196.75;5118185;27;20046;-93
2022/08/27 09:52:09;;;;;;;12.93;7.30;;;;;;;29.76;46.74;98190.50;5122583;27;20048;-93
2022/08/27 09:54:41;;;;;;;12.52;7.40;;;;;;;30.04;45.31;98195.50;5116870;28;20036;-94
2022/08/27 09:57:10;;;;;;;10.48;6.95;;;;;;;30.18;44.93;98196.63;5120475;28;20101;-95
2022/08/27 09:59:39;;;;;;;9.30;7.10;;;;;;;29.74;44.81;98178.00;5122017;28;20048;-94
2022/08/27 10:02:14;;;;;;;13.50;7.53;;;;;;;29.81;44.73;98166.13;5119031;28;20061;-94
2022/08/27 10:04:42;;;;;;;11.00;7.00;;;;;;;29.87;45.09;98200.22;5121871;28;20051;-94
2022/08/27 10:07:35;;;;;;;13.48;7.43;;;;;;;29.68;44.56;98185.84;5118991;28;20096;-94
2022/08/27 10:10:07;;;;;;;11.13;7.13;;;;;;;29.16;45.07;98169.94;5111347;27;20039;-95
2022/08/27 10:12:40;;;;;;;10.38;7.10;;;;;;;29.47;44.65;98163.69;5123789;27;20036;-95
2022/08/27 10:15:10;;;;;;;13.18;7.50;;;;;;;29.75;44.30;98166.00;5118859;28;20078;-94
2022/08/27 10:17:46;;;;;;;13.02;7.70;;;;;;;29.76;44.69;98162.25;5127482;27;20043;-94
2022/08/27 10:20:17;;;;;;;9.90;7.32;;;;;;;30.10;44.16;98161.84;5140316;27;20047;-94
2022/08/27 10:22:55;;;;;;;11.23;7.38;;;;;;;30.40;43.24;98176.59;5123524;27;20047;-95
2022/08/27 10:25:31;;;;;;;9.07;7.25;;;;;;;30.44;43.55;98183.44;5133528;27;20060;-95
2022/08/27 10:28:08;;;;;;;13.32;6.93;;;;;;;30.25;43.90;98179.28;5142780;27;20057;-96
2022/08/27 10:30:52;;;;;;;10.77;7.20;;;;;;;30.58;42.12;98179.06;5118081;27;20063;-94
2022/08/27 10:33:26;;;;;;;11.25;7.15;;;;;;;30.43;41.23;98173.50;5115980;28;20082;-94
2022/08/27 10:36:03;;;;;;;11.45;7.40;;;;;;;29.84;43.78;98151.22;5111885;27;20038;-94
2022/08/27 10:38:38;;;;;;;13.27;8.33;;;;;;;29.63;44.04;98152.66;5115309;28;20036;-95
2022/08/27 10:41:13;;;;;;;11.95;7.43;;;;;;;29.84;43.45;98152.09;5120878;27;20758;-94
2022/08/27 10:43:59;;;;;;;11.68;7.00;;;;;;;30.21;42.98;98153.25;5126192;27;20067;-95
2022/08/27 10:46:45;;;;;;;12.52;7.07;;;;;;;30.26;42.12;98148.06;5117783;27;20035;-95
2022/08/27 10:49:19;;;;;;;10.20;7.28;;;;;;;30.38;41.79;98136.69;5111896;28;20039;-94
2022/08/27 10:51:52;;;;;;;14.20;7.50;;;;;;;30.27;42.03;98126.97;5116104;28;20465;-94
2022/08/27 10:54:30;;;;;;;14.07;7.50;;;;;;;30.24;41.00;98135.56;5116021;28;20124;-93
2022/08/27 10:57:03;;;;;;;11.75;7.82;;;;;;;30.17;42.43;98126.38;5114783;28;20521;-95
2022/08/27 10:59:36;;;;;;;10.63;6.88;;;;;;;30.13;42.75;98123.13;5119032;27;20123;-93
2022/08/27 11:02:14;;;;;;;10.10;6.90;;;;;;;29.84;43.09;98132.03;5123865;27;20061;-94
2022/08/27 11:04:44;;;;;;;;;;;;;;;29.72;43.25;98137.06;5124697;27;20358;-94
2022/08/27 11:07:17;;;;;;;10.88;7.03;;;;;;;29.56;44.69;98137.09;5127782;27;19955;-93
2022/08/27 11:09:48;;;;;;;11.27;8.35;;;;;;;29.75;44.86;98135.84;5118574;27;20063;-94
2022/08/27 11:12:18;;;;;;;11.63;7.90;;;;;;;30.02;44.95;98143.59;5115585;28;20043;-93
2022/08/27 11:14:49;;;;;;;12.77;8.02;;;;;;;30.45;44.34;98132.19;5125900;27;20131;-93
2022/08/27 11:17:21;;;;;;;12.90;8.10;;;;;;;30.73;43.33;98123.34;5120373;27;20039;-93
2022/08/27 11:19:54;;;;;;;10.07;7.03;;;;;;;31.27;41.92;98129.53;5115878;28;20051;-93
2022/08/27 11:22:23;;;;;;;12.85;8.05;;;;;;;31.13;41.38;98113.88;5118214;27;20043;-92
2022/08/27 11:24:56;;;;;;;11.68;8.18;;;;;;;30.66;41.53;98124.09;5120680;27;20032;-94
2022/08/27 11:27:26;;;;;;;14.13;7.47;;;;;;;30.96;41.60;98112.34;5123196;27;20070;-93
2022/08/27 11:29:57;;;;;;;12.13;7.85;;;;;;;30.77;42.00;98116.44;5121670;27;20061;-93
2022/08/27 11:32:31;;;;;;;15.98;7.80;;;;;;;30.37;43.24;98116.63;5114569;28;20044;-93
2022/08/27 11:35:00;;;;;;;11.10;7.50;;;;;;;30.14;43.43;98113.84;5117398;27;20043;-92
2022/08/27 11:38:02;;;;;;;14.18;8.00;;;;;;;29.45;45.70;98127.38;5120490;28;20150;-94